sensor_id;sensor_type;location;lat;lon;timestamp;P1;durP1;ratioP1;P2;durP2;ratioP2
18425;SDS011;9340;48.756;9.226;2022-09-03T00:00:22;2.60;;;2.23;;
18425;SDS011;9340;48.756;9.226;2022-09-03T00:02:51;1.97;;;1.80;;
18425;SDS011;9340;48.756;9.226;2022-09-03T00:05:28;3.40;;;2.37;;
18425;SDS011;9340;48.756;9.226;2022-09-03T00:08:02;2.20;;;1.90;;
18425;SDS011;9340;48.756;9.226;2022-09-03T00:10:38;4.03;;;2.43;;
18425;SDS011;9340;48.756;9.226;2022-09-03T00:13:11;2.53;;;2.10;;
18425;SDS011;9340;48.756;9.226;2022-09-03T00:15:41;2.33;;;2.13;;
18425;SDS011;9340;48.756;9.226;2022-09-03T00:18:09;2.70;;;2.40;;
18425;SDS011;9340;48.756;9.226;2022-09-03T00:20:41;2.20;;;2.00;;
18425;SDS011;9340;48.756;9.226;2022-09-03T00:23:13;2.40;;;2.20;;
18425;SDS011;9340;48.756;9.226;2022-09-03T00:25:47;2.60;;;2.13;;
18425;SDS011;9340;48.756;9.226;2022-09-03T00:28:19;2.03;;;1.83;;
18425;SDS011;9340;48.756;9.226;2022-09-03T00:30:51;2.20;;;1.83;;
18425;SDS011;9340;48.756;9.226;2022-09-03T00:33:26;2.00;;;1.90;;
18425;SDS011;9340;48.756;9.226;2022-09-03T00:36:02;2.80;;;1.90;;
18425;SDS011;9340;48.756;9.226;2022-09-03T00:38:36;3.23;;;2.20;;
18425;SDS011;9340;48.756;9.226;2022-09-03T00:41:05;2.23;;;2.03;;
18425;SDS011;9340;48.756;9.226;2022-09-03T00:43:44;2.83;;;1.97;;
18425;SDS011;9340;48.756;9.226;2022-09-03T00:46:20;3.07;;;2.03;;
18425;SDS011;9340;48.756;9.226;2022-09-03T00:48:55;2.53;;;1.90;;
18425;SDS011;9340;48.756;9.226;2022-09-03T00:51:37;2.10;;;1.90;;
18425;SDS011;9340;48.756;9.226;2022-09-03T00:54:09;2.40;;;1.90;;
18425;SDS011;9340;48.756;9.226;2022-09-03T00:56:47;2.70;;;1.90;;
18425;SDS011;9340;48.756;9.226;2022-09-03T00:59:21;2.63;;;1.80;;
18425;SDS011;9340;48.756;9.226;2022-09-03T01:01:59;2.77;;;2.13;;
18425;SDS011;9340;48.756;9.226;2022-09-03T01:04:33;4.60;;;2.10;;
18425;SDS011;9340;48.756;9.226;2022-09-03T01:07:10;2.60;;;2.10;;
18425;SDS011;9340;48.756;9.226;2022-09-03T01:09:46;1.83;;;1.70;;
18425;SDS011;9340;48.756;9.226;2022-09-03T01:12:22;3.10;;;1.80;;
18425;SDS011;9340;48.756;9.226;2022-09-03T01:15:02;3.20;;;1.80;;
18425;SDS011;9340;48.756;9.226;2022-09-03T01:17:39;2.87;;;1.87;;
18425;SDS011;9340;48.756;9.226;2022-09-03T01:23:22;2.90;;;2.00;;
18425;SDS011;9340;48.756;9.226;2022-09-03T01:26:05;2.83;;;1.97;;
18425;SDS011;9340;48.756;9.226;2022-09-03T01:28:50;1.80;;;1.70;;
18425;SDS011;9340;48.756;9.226;2022-09-03T01:31:31;3.40;;;1.90;;
18425;SDS011;9340;48.756;9.226;2022-09-03T01:34:06;2.80;;;2.20;;
18425;SDS011;9340;48.756;9.226;2022-09-03T01:36:40;2.27;;;1.80;;
18425;SDS011;9340;48.756;9.226;2022-09-03T01:39:12;2.03;;;1.83;;
18425;SDS011;9340;48.756;9.226;2022-09-03T01:41:46;2.87;;;1.97;;
18425;SDS011;9340;48.756;9.226;2022-09-03T01:44:45;2.00;;;1.80;;
18425;SDS011;9340;48.756;9.226;2022-09-03T01:47:33;2.30;;;2.07;;
18425;SDS011;9340;48.756;9.226;2022-09-03T01:50:12;1.90;;;1.70;;
18425;SDS011;9340;48.756;9.226;2022-09-03T01:52:44;2.90;;;1.83;;
18425;SDS011;9340;48.756;9.226;2022-09-03T01:55:19;1.80;;;1.70;;
18425;SDS011;9340;48.756;9.226;2022-09-03T01:57:56;2.27;;;1.90;;
18425;SDS011;9340;48.756;9.226;2022-09-03T02:00:28;2.63;;;1.80;;
18425;SDS011;9340;48.756;9.226;2022-09-03T02:02:59;2.33;;;2.13;;
18425;SDS011;9340;48.756;9.226;2022-09-03T02:05:28;3.37;;;1.90;;
18425;SDS011;9340;48.756;9.226;2022-09-03T02:07:55;2.03;;;1.90;;
18425;SDS011;9340;48.756;9.226;2022-09-03T02:10:25;2.80;;;1.90;;
18425;SDS011;9340;48.756;9.226;2022-09-03T02:12:56;2.42;;;2.22;;
18425;SDS011;9340;48.756;9.226;2022-09-03T02:15:26;2.70;;;2.07;;
18425;SDS011;9340;48.756;9.226;2022-09-03T02:17:56;3.53;;;2.35;;
18425;SDS011;9340;48.756;9.226;2022-09-03T02:20:27;3.37;;;2.10;;
18425;SDS011;9340;48.756;9.226;2022-09-03T02:22:55;1.93;;;1.80;;
18425;SDS011;9340;48.756;9.226;2022-09-03T02:25:23;2.20;;;2.00;;
18425;SDS011;9340;48.756;9.226;2022-09-03T02:27:55;2.23;;;2.03;;
18425;SDS011;9340;48.756;9.226;2022-09-03T02:30:23;2.00;;;1.80;;
18425;SDS011;9340;48.756;9.226;2022-09-03T02:32:49;3.27;;;2.03;;
18425;SDS011;9340;48.756;9.226;2022-09-03T02:35:17;1.90;;;1.80;;
18425;SDS011;9340;48.756;9.226;2022-09-03T02:37:44;2.50;;;2.30;;
18425;SDS011;9340;48.756;9.226;2022-09-03T02:40:10;2.07;;;1.97;;
18425;SDS011;9340;48.756;9.226;2022-09-03T02:42:37;5.67;;;2.20;;
18425;SDS011;9340;48.756;9.226;2022-09-03T02:45:06;2.20;;;2.00;;
18425;SDS011;9340;48.756;9.226;2022-09-03T02:47:41;1.83;;;1.73;;
18425;SDS011;9340;48.756;9.226;2022-09-03T02:50:12;2.00;;;1.90;;
18425;SDS011;9340;48.756;9.226;2022-09-03T02:52:40;2.63;;;2.40;;
18425;SDS011;9340;48.756;9.226;2022-09-03T02:55:07;3.57;;;1.93;;
18425;SDS011;9340;48.756;9.226;2022-09-03T02:57:34;3.20;;;2.30;;
18425;SDS011;9340;48.756;9.226;2022-09-03T03:00:01;3.47;;;2.07;;
18425;SDS011;9340;48.756;9.226;2022-09-03T03:02:28;3.73;;;1.90;;
18425;SDS011;9340;48.756;9.226;2022-09-03T03:04:55;3.17;;;2.00;;
18425;SDS011;9340;48.756;9.226;2022-09-03T03:07:22;4.10;;;2.30;;
18425;SDS011;9340;48.756;9.226;2022-09-03T03:09:51;2.40;;;2.20;;
18425;SDS011;9340;48.756;9.226;2022-09-03T03:12:17;3.63;;;2.43;;
18425;SDS011;9340;48.756;9.226;2022-09-03T03:14:45;3.63;;;2.17;;
18425;SDS011;9340;48.756;9.226;2022-09-03T03:17:12;2.93;;;2.37;;
18425;SDS011;9340;48.756;9.226;2022-09-03T03:19:38;4.83;;;2.40;;
18425;SDS011;9340;48.756;9.226;2022-09-03T03:22:05;2.83;;;2.17;;
18425;SDS011;9340;48.756;9.226;2022-09-03T03:24:32;2.53;;;2.33;;
18425;SDS011;9340;48.756;9.226;2022-09-03T03:26:59;2.43;;;2.00;;
18425;SDS011;9340;48.756;9.226;2022-09-03T03:29:29;2.60;;;2.40;;
18425;SDS011;9340;48.756;9.226;2022-09-03T03:31:56;2.87;;;2.30;;
18425;SDS011;9340;48.756;9.226;2022-09-03T03:34:23;3.57;;;2.47;;
18425;SDS011;9340;48.756;9.226;2022-09-03T03:36:50;2.57;;;2.37;;
18425;SDS011;9340;48.756;9.226;2022-09-03T03:39:16;2.93;;;2.13;;
18425;SDS011;9340;48.756;9.226;2022-09-03T03:41:44;2.50;;;2.27;;
18425;SDS011;9340;48.756;9.226;2022-09-03T03:44:12;2.60;;;2.40;;
18425;SDS011;9340;48.756;9.226;2022-09-03T03:46:39;2.40;;;2.20;;
18425;SDS011;9340;48.756;9.226;2022-09-03T03:49:07;3.67;;;2.73;;
18425;SDS011;9340;48.756;9.226;2022-09-03T03:51:35;2.40;;;2.13;;
18425;SDS011;9340;48.756;9.226;2022-09-03T03:54:03;2.90;;;2.60;;
18425;SDS011;9340;48.756;9.226;2022-09-03T03:56:30;3.83;;;2.50;;
18425;SDS011;9340;48.756;9.226;2022-09-03T03:58:57;2.53;;;2.33;;
18425;SDS011;9340;48.756;9.226;2022-09-03T04:01:26;3.63;;;2.70;;
18425;SDS011;9340;48.756;9.226;2022-09-03T04:03:53;2.93;;;2.60;;
18425;SDS011;9340;48.756;9.226;2022-09-03T04:06:21;3.63;;;2.67;;
18425;SDS011;9340;48.756;9.226;2022-09-03T04:08:48;3.53;;;2.20;;
18425;SDS011;9340;48.756;9.226;2022-09-03T04:11:15;4.40;;;2.33;;
18425;SDS011;9340;48.756;9.226;2022-09-03T04:13:45;2.50;;;2.30;;
18425;SDS011;9340;48.756;9.226;2022-09-03T04:16:12;2.13;;;2.00;;
18425;SDS011;9340;48.756;9.226;2022-09-03T04:18:42;3.37;;;2.13;;
18425;SDS011;9340;48.756;9.226;2022-09-03T04:21:09;2.77;;;2.47;;
18425;SDS011;9340;48.756;9.226;2022-09-03T04:23:37;3.67;;;2.43;;
18425;SDS011;9340;48.756;9.226;2022-09-03T04:26:05;2.60;;;2.40;;
18425;SDS011;9340;48.756;9.226;2022-09-03T04:28:33;2.97;;;2.43;;
18425;SDS011;9340;48.756;9.226;2022-09-03T04:31:01;2.57;;;2.30;;
18425;SDS011;9340;48.756;9.226;2022-09-03T04:33:28;2.50;;;2.30;;
18425;SDS011;9340;48.756;9.226;2022-09-03T04:36:03;3.30;;;2.80;;
18425;SDS011;9340;48.756;9.226;2022-09-03T04:38:32;4.57;;;2.80;;
18425;SDS011;9340;48.756;9.226;2022-09-03T04:40:59;3.50;;;2.30;;
18425;SDS011;9340;48.756;9.226;2022-09-03T04:43:26;2.77;;;2.57;;
18425;SDS011;9340;48.756;9.226;2022-09-03T04:45:56;3.63;;;2.83;;
18425;SDS011;9340;48.756;9.226;2022-09-03T04:48:24;4.60;;;2.70;;
18425;SDS011;9340;48.756;9.226;2022-09-03T04:50:50;3.67;;;2.80;;
18425;SDS011;9340;48.756;9.226;2022-09-03T04:53:20;2.70;;;2.50;;
18425;SDS011;9340;48.756;9.226;2022-09-03T04:55:47;2.67;;;2.47;;
18425;SDS011;9340;48.756;9.226;2022-09-03T04:58:14;2.80;;;2.60;;
18425;SDS011;9340;48.756;9.226;2022-09-03T05:00:41;3.07;;;2.77;;
18425;SDS011;9340;48.756;9.226;2022-09-03T05:03:08;3.00;;;2.70;;
18425;SDS011;9340;48.756;9.226;2022-09-03T05:05:35;2.93;;;2.50;;
18425;SDS011;9340;48.756;9.226;2022-09-03T05:08:02;3.20;;;2.40;;
18425;SDS011;9340;48.756;9.226;2022-09-03T05:10:31;3.10;;;2.80;;
18425;SDS011;9340;48.756;9.226;2022-09-03T05:12:58;3.77;;;2.30;;
18425;SDS011;9340;48.756;9.226;2022-09-03T05:15:26;2.83;;;2.27;;
18425;SDS011;9340;48.756;9.226;2022-09-03T05:17:56;6.03;;;2.50;;
18425;SDS011;9340;48.756;9.226;2022-09-03T05:20:25;2.60;;;2.40;;
18425;SDS011;9340;48.756;9.226;2022-09-03T05:22:54;4.10;;;2.60;;
18425;SDS011;9340;48.756;9.226;2022-09-03T05:25:21;2.67;;;2.47;;
18425;SDS011;9340;48.756;9.226;2022-09-03T05:27:50;2.43;;;2.23;;
18425;SDS011;9340;48.756;9.226;2022-09-03T05:30:18;3.13;;;2.77;;
18425;SDS011;9340;48.756;9.226;2022-09-03T05:32:46;3.80;;;2.40;;
18425;SDS011;9340;48.756;9.226;2022-09-03T05:35:13;2.40;;;2.20;;
18425;SDS011;9340;48.756;9.226;2022-09-03T05:37:40;3.00;;;2.33;;
18425;SDS011;9340;48.756;9.226;2022-09-03T05:40:07;4.17;;;2.30;;
18425;SDS011;9340;48.756;9.226;2022-09-03T05:42:35;4.43;;;2.57;;
18425;SDS011;9340;48.756;9.226;2022-09-03T05:45:04;2.40;;;2.20;;
18425;SDS011;9340;48.756;9.226;2022-09-03T05:47:33;2.80;;;2.60;;
18425;SDS011;9340;48.756;9.226;2022-09-03T05:50:00;6.00;;;2.83;;
18425;SDS011;9340;48.756;9.226;2022-09-03T05:52:27;3.80;;;2.20;;
18425;SDS011;9340;48.756;9.226;2022-09-03T05:54:53;2.70;;;2.50;;
18425;SDS011;9340;48.756;9.226;2022-09-03T05:57:20;2.88;;;2.58;;
18425;SDS011;9340;48.756;9.226;2022-09-03T05:59:47;2.80;;;2.60;;
18425;SDS011;9340;48.756;9.226;2022-09-03T06:02:15;2.38;;;2.17;;
18425;SDS011;9340;48.756;9.226;2022-09-03T06:04:43;2.40;;;2.20;;
18425;SDS011;9340;48.756;9.226;2022-09-03T06:07:10;2.45;;;2.25;;
18425;SDS011;9340;48.756;9.226;2022-09-03T06:09:37;2.75;;;2.33;;
18425;SDS011;9340;48.756;9.226;2022-09-03T06:12:03;2.70;;;2.50;;
18425;SDS011;9340;48.756;9.226;2022-09-03T06:14:30;3.33;;;2.60;;
18425;SDS011;9340;48.756;9.226;2022-09-03T06:16:57;4.35;;;2.50;;
18425;SDS011;9340;48.756;9.226;2022-09-03T06:19:25;4.03;;;2.60;;
18425;SDS011;9340;48.756;9.226;2022-09-03T06:21:51;2.60;;;2.40;;
18425;SDS011;9340;48.756;9.226;2022-09-03T06:24:19;4.13;;;2.80;;
18425;SDS011;9340;48.756;9.226;2022-09-03T06:26:47;2.97;;;2.65;;
18425;SDS011;9340;48.756;9.226;2022-09-03T06:29:14;3.90;;;2.42;;
18425;SDS011;9340;48.756;9.226;2022-09-03T06:31:43;2.80;;;2.60;;
18425;SDS011;9340;48.756;9.226;2022-09-03T06:34:10;3.47;;;2.80;;
18425;SDS011;9340;48.756;9.226;2022-09-03T06:36:38;2.80;;;2.60;;
18425;SDS011;9340;48.756;9.226;2022-09-03T06:39:05;4.50;;;3.05;;
18425;SDS011;9340;48.756;9.226;2022-09-03T06:41:32;3.33;;;3.03;;
18425;SDS011;9340;48.756;9.226;2022-09-03T06:43:59;3.10;;;2.78;;
18425;SDS011;9340;48.756;9.226;2022-09-03T06:46:28;2.92;;;2.72;;
18425;SDS011;9340;48.756;9.226;2022-09-03T06:48:55;3.25;;;2.97;;
18425;SDS011;9340;48.756;9.226;2022-09-03T06:51:23;2.90;;;2.70;;
18425;SDS011;9340;48.756;9.226;2022-09-03T06:53:53;2.63;;;2.42;;
18425;SDS011;9340;48.756;9.226;2022-09-03T06:56:24;2.67;;;2.47;;
18425;SDS011;9340;48.756;9.226;2022-09-03T06:58:52;3.20;;;2.90;;
18425;SDS011;9340;48.756;9.226;2022-09-03T07:01:20;5.55;;;3.00;;
18425;SDS011;9340;48.756;9.226;2022-09-03T07:03:51;5.65;;;2.63;;
18425;SDS011;9340;48.756;9.226;2022-09-03T07:06:20;3.08;;;2.78;;
18425;SDS011;9340;48.756;9.226;2022-09-03T07:08:48;3.72;;;2.90;;
18425;SDS011;9340;48.756;9.226;2022-09-03T07:11:17;2.50;;;2.30;;
18425;SDS011;9340;48.756;9.226;2022-09-03T07:13:48;3.22;;;2.92;;
18425;SDS011;9340;48.756;9.226;2022-09-03T07:16:16;2.83;;;2.38;;
18425;SDS011;9340;48.756;9.226;2022-09-03T07:18:44;3.85;;;2.80;;
18425;SDS011;9340;48.756;9.226;2022-09-03T07:21:11;6.20;;;2.92;;
18425;SDS011;9340;48.756;9.226;2022-09-03T07:23:40;2.85;;;2.60;;
18425;SDS011;9340;48.756;9.226;2022-09-03T07:26:08;3.50;;;3.20;;
18425;SDS011;9340;48.756;9.226;2022-09-03T07:28:38;4.53;;;3.03;;
18425;SDS011;9340;48.756;9.226;2022-09-03T07:31:07;3.28;;;2.83;;
18425;SDS011;9340;48.756;9.226;2022-09-03T07:33:35;3.08;;;2.88;;
18425;SDS011;9340;48.756;9.226;2022-09-03T07:36:03;4.78;;;2.92;;
18425;SDS011;9340;48.756;9.226;2022-09-03T07:38:31;3.15;;;2.72;;
18425;SDS011;9340;48.756;9.226;2022-09-03T07:40:58;3.10;;;2.90;;
18425;SDS011;9340;48.756;9.226;2022-09-03T07:43:25;3.38;;;3.08;;
18425;SDS011;9340;48.756;9.226;2022-09-03T07:45:54;5.10;;;4.60;;
18425;SDS011;9340;48.756;9.226;2022-09-03T07:48:22;6.32;;;5.72;;
18425;SDS011;9340;48.756;9.226;2022-09-03T07:50:49;6.55;;;5.95;;
18425;SDS011;9340;48.756;9.226;2022-09-03T07:53:16;6.30;;;5.80;;
18425;SDS011;9340;48.756;9.226;2022-09-03T07:55:44;5.80;;;5.20;;
18425;SDS011;9340;48.756;9.226;2022-09-03T07:58:11;6.03;;;5.28;;
18425;SDS011;9340;48.756;9.226;2022-09-03T08:00:38;8.82;;;5.28;;
18425;SDS011;9340;48.756;9.226;2022-09-03T08:03:07;5.97;;;4.47;;
18425;SDS011;9340;48.756;9.226;2022-09-03T08:05:35;4.22;;;3.80;;
18425;SDS011;9340;48.756;9.226;2022-09-03T08:08:02;4.55;;;3.63;;
18425;SDS011;9340;48.756;9.226;2022-09-03T08:10:29;4.80;;;4.35;;
18425;SDS011;9340;48.756;9.226;2022-09-03T08:12:56;4.53;;;4.13;;
18425;SDS011;9340;48.756;9.226;2022-09-03T08:15:23;4.45;;;4.05;;
18425;SDS011;9340;48.756;9.226;2022-09-03T08:17:51;4.13;;;3.70;;
18425;SDS011;9340;48.756;9.226;2022-09-03T08:20:19;5.30;;;3.88;;
18425;SDS011;9340;48.756;9.226;2022-09-03T08:22:46;3.80;;;3.30;;
18425;SDS011;9340;48.756;9.226;2022-09-03T08:25:13;4.95;;;3.45;;
18425;SDS011;9340;48.756;9.226;2022-09-03T08:27:40;3.95;;;3.40;;
18425;SDS011;9340;48.756;9.226;2022-09-03T08:30:07;3.85;;;3.55;;
18425;SDS011;9340;48.756;9.226;2022-09-03T08:32:35;3.92;;;3.53;;
18425;SDS011;9340;48.756;9.226;2022-09-03T08:35:02;3.55;;;3.25;;
18425;SDS011;9340;48.756;9.226;2022-09-03T08:37:31;3.40;;;3.13;;
18425;SDS011;9340;48.756;9.226;2022-09-03T08:39:57;4.45;;;3.45;;
18425;SDS011;9340;48.756;9.226;2022-09-03T08:42:27;5.25;;;3.60;;
18425;SDS011;9340;48.756;9.226;2022-09-03T08:45:06;4.22;;;3.80;;
18425;SDS011;9340;48.756;9.226;2022-09-03T08:47:41;4.15;;;3.70;;
18425;SDS011;9340;48.756;9.226;2022-09-03T08:50:21;3.30;;;3.10;;
18425;SDS011;9340;48.756;9.226;2022-09-03T08:52:53;3.47;;;3.17;;
18425;SDS011;9340;48.756;9.226;2022-09-03T08:55:26;3.67;;;3.38;;
18425;SDS011;9340;48.756;9.226;2022-09-03T08:57:56;3.83;;;3.40;;
18425;SDS011;9340;48.756;9.226;2022-09-03T09:00:27;4.90;;;3.70;;
18425;SDS011;9340;48.756;9.226;2022-09-03T09:03:07;4.13;;;3.72;;
18425;SDS011;9340;48.756;9.226;2022-09-03T09:05:48;3.45;;;3.10;;
18425;SDS011;9340;48.756;9.226;2022-09-03T09:08:26;3.70;;;3.40;;
18425;SDS011;9340;48.756;9.226;2022-09-03T09:11:00;3.58;;;3.30;;
18425;SDS011;9340;48.756;9.226;2022-09-03T09:13:33;3.22;;;3.00;;
18425;SDS011;9340;48.756;9.226;2022-09-03T09:16:09;3.35;;;3.05;;
18425;SDS011;9340;48.756;9.226;2022-09-03T09:18:47;3.55;;;3.25;;
18425;SDS011;9340;48.756;9.226;2022-09-03T09:21:22;3.10;;;2.88;;
18425;SDS011;9340;48.756;9.226;2022-09-03T09:23:56;3.63;;;3.33;;
18425;SDS011;9340;48.756;9.226;2022-09-03T09:26:27;3.65;;;3.25;;
18425;SDS011;9340;48.756;9.226;2022-09-03T09:28:56;3.67;;;3.38;;
18425;SDS011;9340;48.756;9.226;2022-09-03T09:31:24;4.57;;;4.18;;
18425;SDS011;9340;48.756;9.226;2022-09-03T09:33:54;4.95;;;4.40;;
18425;SDS011;9340;48.756;9.226;2022-09-03T09:36:25;4.68;;;4.28;;
18425;SDS011;9340;48.756;9.226;2022-09-03T09:38:52;5.18;;;4.53;;
18425;SDS011;9340;48.756;9.226;2022-09-03T09:41:20;4.50;;;4.10;;
18425;SDS011;9340;48.756;9.226;2022-09-03T09:43:58;4.50;;;3.90;;
18425;SDS011;9340;48.756;9.226;2022-09-03T09:46:26;4.20;;;3.78;;
18425;SDS011;9340;48.756;9.226;2022-09-03T09:48:59;3.72;;;3.42;;
18425;SDS011;9340;48.756;9.226;2022-09-03T09:51:26;4.43;;;3.63;;
18425;SDS011;9340;48.756;9.226;2022-09-03T09:54:02;5.30;;;3.30;;
18425;SDS011;9340;48.756;9.226;2022-09-03T09:56:42;3.85;;;3.55;;
18425;SDS011;9340;48.756;9.226;2022-09-03T09:59:10;4.80;;;4.18;;
18425;SDS011;9340;48.756;9.226;2022-09-03T10:01:38;4.32;;;3.95;;
18425;SDS011;9340;48.756;9.226;2022-09-03T10:04:07;3.53;;;3.25;;
18425;SDS011;9340;48.756;9.226;2022-09-03T10:06:35;4.00;;;3.70;;
18425;SDS011;9340;48.756;9.226;2022-09-03T10:09:18;4.05;;;3.75;;
18425;SDS011;9340;48.756;9.226;2022-09-03T10:11:47;6.43;;;4.05;;
18425;SDS011;9340;48.756;9.226;2022-09-03T10:14:17;4.15;;;3.83;;
18425;SDS011;9340;48.756;9.226;2022-09-03T10:16:49;4.43;;;4.03;;
18425;SDS011;9340;48.756;9.226;2022-09-03T10:19:22;4.40;;;4.00;;
18425;SDS011;9340;48.756;9.226;2022-09-03T10:22:00;3.85;;;3.65;;
18425;SDS011;9340;48.756;9.226;2022-09-03T10:24:35;4.38;;;3.80;;
18425;SDS011;9340;48.756;9.226;2022-09-03T10:27:07;4.00;;;3.67;;
18425;SDS011;9340;48.756;9.226;2022-09-03T10:29:36;5.93;;;4.28;;
18425;SDS011;9340;48.756;9.226;2022-09-03T10:34:58;4.70;;;3.40;;
18425;SDS011;9340;48.756;9.226;2022-09-03T10:37:33;4.03;;;3.72;;
18425;SDS011;9340;48.756;9.226;2022-09-03T10:40:09;4.22;;;3.63;;
18425;SDS011;9340;48.756;9.226;2022-09-03T10:42:45;4.47;;;4.07;;
18425;SDS011;9340;48.756;9.226;2022-09-03T10:45:25;4.05;;;3.75;;
18425;SDS011;9340;48.756;9.226;2022-09-03T10:48:06;4.75;;;4.38;;
18425;SDS011;9340;48.756;9.226;2022-09-03T10:50:45;4.70;;;4.30;;
18425;SDS011;9340;48.756;9.226;2022-09-03T10:53:19;3.75;;;3.45;;
18425;SDS011;9340;48.756;9.226;2022-09-03T10:55:58;4.38;;;3.97;;
18425;SDS011;9340;48.756;9.226;2022-09-03T10:58:35;4.60;;;3.83;;
18425;SDS011;9340;48.756;9.226;2022-09-03T11:01:15;4.30;;;3.90;;
18425;SDS011;9340;48.756;9.226;2022-09-03T11:03:50;5.35;;;4.93;;
18425;SDS011;9340;48.756;9.226;2022-09-03T11:06:34;5.07;;;4.68;;
18425;SDS011;9340;48.756;9.226;2022-09-03T11:09:09;8.57;;;4.00;;
18425;SDS011;9340;48.756;9.226;2022-09-03T11:11:44;4.18;;;3.83;;
18425;SDS011;9340;48.756;9.226;2022-09-03T11:14:17;3.97;;;3.58;;
18425;SDS011;9340;48.756;9.226;2022-09-03T11:16:51;4.13;;;3.72;;
18425;SDS011;9340;48.756;9.226;2022-09-03T11:19:26;3.90;;;3.60;;
18425;SDS011;9340;48.756;9.226;2022-09-03T11:21:59;4.55;;;3.90;;
18425;SDS011;9340;48.756;9.226;2022-09-03T11:24:29;4.38;;;3.92;;
18425;SDS011;9340;48.756;9.226;2022-09-03T11:27:01;3.80;;;3.00;;
18425;SDS011;9340;48.756;9.226;2022-09-03T11:29:33;4.18;;;3.88;;
18425;SDS011;9340;48.756;9.226;2022-09-03T11:32:07;4.10;;;3.70;;
18425;SDS011;9340;48.756;9.226;2022-09-03T11:34:44;5.75;;;3.70;;
18425;SDS011;9340;48.756;9.226;2022-09-03T11:37:15;4.18;;;3.88;;
18425;SDS011;9340;48.756;9.226;2022-09-03T11:39:52;4.38;;;4.03;;
18425;SDS011;9340;48.756;9.226;2022-09-03T11:42:29;4.03;;;3.72;;
18425;SDS011;9340;48.756;9.226;2022-09-03T11:44:59;4.57;;;4.18;;
18425;SDS011;9340;48.756;9.226;2022-09-03T11:47:39;4.95;;;4.28;;
18425;SDS011;9340;48.756;9.226;2022-09-03T11:50:08;4.10;;;3.80;;
18425;SDS011;9340;48.756;9.226;2022-09-03T11:52:45;4.30;;;3.90;;
18425;SDS011;9340;48.756;9.226;2022-09-03T11:55:23;4.00;;;3.60;;
18425;SDS011;9340;48.756;9.226;2022-09-03T11:57:56;6.18;;;4.30;;
18425;SDS011;9340;48.756;9.226;2022-09-03T12:00:23;4.13;;;3.83;;
18425;SDS011;9340;48.756;9.226;2022-09-03T12:02:51;3.88;;;3.58;;
18425;SDS011;9340;48.756;9.226;2022-09-03T12:05:24;4.20;;;3.90;;
18425;SDS011;9340;48.756;9.226;2022-09-03T12:08:13;5.10;;;4.10;;
18425;SDS011;9340;48.756;9.226;2022-09-03T12:11:05;3.38;;;3.17;;
18425;SDS011;9340;48.756;9.226;2022-09-03T12:13:50;4.55;;;4.15;;
18425;SDS011;9340;48.756;9.226;2022-09-03T12:16:29;4.15;;;3.85;;
18425;SDS011;9340;48.756;9.226;2022-09-03T12:19:06;4.15;;;3.78;;
18425;SDS011;9340;48.756;9.226;2022-09-03T12:21:40;5.80;;;4.13;;
18425;SDS011;9340;48.756;9.226;2022-09-03T12:24:09;4.43;;;4.10;;
18425;SDS011;9340;48.756;9.226;2022-09-03T12:26:38;11.98;;;11.07;;
18425;SDS011;9340;48.756;9.226;2022-09-03T12:29:10;8.55;;;7.85;;
18425;SDS011;9340;48.756;9.226;2022-09-03T12:31:47;4.20;;;3.80;;
18425;SDS011;9340;48.756;9.226;2022-09-03T12:34:15;5.18;;;2.97;;
18425;SDS011;9340;48.756;9.226;2022-09-03T12:36:44;2.80;;;2.60;;
18425;SDS011;9340;48.756;9.226;2022-09-03T12:39:12;2.67;;;2.45;;
18425;SDS011;9340;48.756;9.226;2022-09-03T12:41:50;2.38;;;1.85;;
18425;SDS011;9340;48.756;9.226;2022-09-03T12:44:26;2.65;;;2.42;;
18425;SDS011;9340;48.756;9.226;2022-09-03T12:47:00;2.13;;;1.80;;
18425;SDS011;9340;48.756;9.226;2022-09-03T12:49:33;2.20;;;2.00;;
18425;SDS011;9340;48.756;9.226;2022-09-03T12:52:02;2.97;;;1.98;;
18425;SDS011;9340;48.756;9.226;2022-09-03T12:54:34;4.07;;;2.40;;
18425;SDS011;9340;48.756;9.226;2022-09-03T12:57:05;4.20;;;2.67;;
18425;SDS011;9340;48.756;9.226;2022-09-03T12:59:35;2.90;;;2.58;;
18425;SDS011;9340;48.756;9.226;2022-09-03T13:02:03;3.95;;;2.60;;
18425;SDS011;9340;48.756;9.226;2022-09-03T13:04:41;7.05;;;2.70;;
18425;SDS011;9340;48.756;9.226;2022-09-03T13:07:11;3.03;;;2.70;;
18425;SDS011;9340;48.756;9.226;2022-09-03T13:09:44;5.57;;;3.30;;
18425;SDS011;9340;48.756;9.226;2022-09-03T13:12:19;5.18;;;3.33;;
18425;SDS011;9340;48.756;9.226;2022-09-03T13:14:48;3.13;;;2.83;;
18425;SDS011;9340;48.756;9.226;2022-09-03T13:17:24;2.95;;;2.65;;
18425;SDS011;9340;48.756;9.226;2022-09-03T13:20:16;3.78;;;2.75;;
18425;SDS011;9340;48.756;9.226;2022-09-03T13:22:57;4.68;;;3.00;;
18425;SDS011;9340;48.756;9.226;2022-09-03T13:25:35;2.33;;;2.13;;
18425;SDS011;9340;48.756;9.226;2022-09-03T13:28:14;3.05;;;2.40;;
18425;SDS011;9340;48.756;9.226;2022-09-03T13:30:54;3.08;;;2.47;;
18425;SDS011;9340;48.756;9.226;2022-09-03T13:33:27;3.42;;;2.30;;
18425;SDS011;9340;48.756;9.226;2022-09-03T13:35:59;3.20;;;2.50;;
18425;SDS011;9340;48.756;9.226;2022-09-03T13:38:37;4.10;;;2.60;;
18425;SDS011;9340;48.756;9.226;2022-09-03T13:41:08;4.47;;;2.58;;
18425;SDS011;9340;48.756;9.226;2022-09-03T13:43:44;3.10;;;2.25;;
18425;SDS011;9340;48.756;9.226;2022-09-03T13:46:19;3.13;;;2.42;;
18425;SDS011;9340;48.756;9.226;2022-09-03T13:48:51;2.72;;;2.15;;
18425;SDS011;9340;48.756;9.226;2022-09-03T13:51:44;6.38;;;2.20;;
18425;SDS011;9340;48.756;9.226;2022-09-03T13:54:17;2.22;;;1.83;;
18425;SDS011;9340;48.756;9.226;2022-09-03T13:56:50;2.17;;;1.60;;
18425;SDS011;9340;48.756;9.226;2022-09-03T13:59:24;3.25;;;1.67;;
18425;SDS011;9340;48.756;9.226;2022-09-03T14:02:06;3.47;;;2.28;;
18425;SDS011;9340;48.756;9.226;2022-09-03T14:04:43;2.15;;;1.90;;
18425;SDS011;9340;48.756;9.226;2022-09-03T14:07:20;1.95;;;1.75;;
18425;SDS011;9340;48.756;9.226;2022-09-03T14:09:55;2.72;;;2.20;;
18425;SDS011;9340;48.756;9.226;2022-09-03T14:12:36;1.70;;;1.60;;
18425;SDS011;9340;48.756;9.226;2022-09-03T14:15:14;3.22;;;2.33;;
18425;SDS011;9340;48.756;9.226;2022-09-03T14:17:47;4.70;;;2.47;;
18425;SDS011;9340;48.756;9.226;2022-09-03T14:20:21;2.60;;;2.08;;
18425;SDS011;9340;48.756;9.226;2022-09-03T14:22:52;2.70;;;2.05;;
18425;SDS011;9340;48.756;9.226;2022-09-03T14:25:25;4.45;;;2.40;;
18425;SDS011;9340;48.756;9.226;2022-09-03T14:27:52;2.33;;;2.00;;
18425;SDS011;9340;48.756;9.226;2022-09-03T14:30:24;2.15;;;1.90;;
18425;SDS011;9340;48.756;9.226;2022-09-03T14:33:02;2.10;;;1.70;;
18425;SDS011;9340;48.756;9.226;2022-09-03T14:35:39;2.15;;;1.75;;
18425;SDS011;9340;48.756;9.226;2022-09-03T14:38:18;3.70;;;1.80;;
18425;SDS011;9340;48.756;9.226;2022-09-03T14:41:00;1.65;;;1.55;;
18425;SDS011;9340;48.756;9.226;2022-09-03T14:43:36;1.95;;;1.73;;
18425;SDS011;9340;48.756;9.226;2022-09-03T14:46:26;2.22;;;2.03;;
18425;SDS011;9340;48.756;9.226;2022-09-03T14:49:19;1.60;;;1.50;;
18425;SDS011;9340;48.756;9.226;2022-09-03T14:52:12;2.80;;;1.55;;
18425;SDS011;9340;48.756;9.226;2022-09-03T14:54:57;2.17;;;1.98;;
18425;SDS011;9340;48.756;9.226;2022-09-03T14:57:46;3.00;;;1.70;;
18425;SDS011;9340;48.756;9.226;2022-09-03T15:00:25;1.73;;;1.63;;
18425;SDS011;9340;48.756;9.226;2022-09-03T15:06:12;1.70;;;1.60;;
18425;SDS011;9340;48.756;9.226;2022-09-03T15:08:52;1.50;;;1.40;;
18425;SDS011;9340;48.756;9.226;2022-09-03T15:11:25;2.13;;;1.63;;
18425;SDS011;9340;48.756;9.226;2022-09-03T15:13:59;1.45;;;1.35;;
18425;SDS011;9340;48.756;9.226;2022-09-03T15:16:35;1.90;;;1.75;;
18425;SDS011;9340;48.756;9.226;2022-09-03T15:19:11;1.45;;;1.35;;
18425;SDS011;9340;48.756;9.226;2022-09-03T15:21:51;2.45;;;1.50;;
18425;SDS011;9340;48.756;9.226;2022-09-03T15:24:33;1.85;;;1.48;;
18425;SDS011;9340;48.756;9.226;2022-09-03T15:27:10;1.60;;;1.50;;
18425;SDS011;9340;48.756;9.226;2022-09-03T15:29:48;1.70;;;1.60;;
18425;SDS011;9340;48.756;9.226;2022-09-03T15:32:21;1.63;;;1.50;;
18425;SDS011;9340;48.756;9.226;2022-09-03T15:34:59;1.92;;;1.60;;
18425;SDS011;9340;48.756;9.226;2022-09-03T15:37:35;2.17;;;1.75;;